createdAt,value
2023-03-23T15:59:34.703Z,12.29
2023-03-23T16:02:37.287Z,12.35
2023-03-23T16:05:39.952Z,12.43
2023-03-23T16:08:42.618Z,12.26
2023-03-23T16:11:56.708Z,11.99
2023-03-23T16:14:59.082Z,12.10
2023-03-23T16:18:01.537Z,12.09
2023-03-23T16:21:04.612Z,11.94
2023-03-23T16:24:08.135Z,11.78
2023-03-23T16:27:11.261Z,11.68
2023-03-23T16:30:20.313Z,11.84
2023-03-23T16:33:22.749Z,11.71
2023-03-23T16:36:25.193Z,11.74
2023-03-23T16:39:28.112Z,11.94
2023-03-23T16:42:30.809Z,11.56
2023-03-23T16:45:33.383Z,11.74
2023-03-23T16:48:38.462Z,11.75
2023-03-23T16:51:42.820Z,11.65
2023-03-23T16:54:45.866Z,11.72
2023-03-23T16:57:48.559Z,11.59
2023-03-23T17:00:52.232Z,11.53
2023-03-23T17:03:55.890Z,11.46
2023-03-23T17:06:59.232Z,11.54
2023-03-23T17:10:01.548Z,11.59
2023-03-23T17:13:03.970Z,11.59
2023-03-23T17:16:07.065Z,11.64
2023-03-23T17:19:09.519Z,11.48
2023-03-23T17:22:12.295Z,11.46
2023-03-23T17:25:14.816Z,11.44
2023-03-23T17:28:19.452Z,11.59
2023-03-23T17:31:22.812Z,11.61
2023-03-23T17:34:26.480Z,11.52
2023-03-23T17:37:28.907Z,11.46
2023-03-23T17:40:31.275Z,11.60
2023-03-23T17:43:33.845Z,11.69
2023-03-23T17:46:36.478Z,11.72
2023-03-23T17:49:39.091Z,11.59
2023-03-23T17:52:43.414Z,11.74
2023-03-23T17:55:46.141Z,11.78
2023-03-23T17:58:48.646Z,11.48
2023-03-23T18:01:52.061Z,11.44
2023-03-23T18:04:58.331Z,11.29
2023-03-23T18:08:01.119Z,11.27
2023-03-23T18:11:04.248Z,11.32
2023-03-23T18:14:06.740Z,11.32
2023-03-23T18:17:09.137Z,11.25
2023-03-23T18:20:11.739Z,11.16
2023-03-23T18:23:14.798Z,10.85
2023-03-23T18:26:17.257Z,10.75
2023-03-23T18:29:19.639Z,10.55
2023-03-23T18:32:22.112Z,10.53
2023-03-23T18:35:24.455Z,10.47
2023-03-23T18:38:27.094Z,10.56
2023-03-23T18:41:29.502Z,10.41
2023-03-23T18:44:31.867Z,10.14
2023-03-23T18:47:34.793Z,10.21
2023-03-23T18:50:37.348Z,10.27
2023-03-23T18:53:39.969Z,10.50
2023-03-23T18:56:42.354Z,10.63
2023-03-23T18:59:44.709Z,10.38
2023-03-23T19:02:47.449Z,10.30
2023-03-23T19:05:59.400Z,10.23
2023-03-23T19:09:01.973Z,10.39
2023-03-23T19:12:04.711Z,10.22
2023-03-23T19:15:07.806Z,10.28
2023-03-23T19:18:10.261Z,10.35
2023-03-23T19:21:15.648Z,10.21
2023-03-23T19:24:20.528Z,10.19
2023-03-23T19:27:22.941Z,10.29
2023-03-23T19:30:27.895Z,10.21
2023-03-23T19:33:30.433Z,10.26
2023-03-23T19:36:33.483Z,10.33
2023-03-23T19:39:36.862Z,10.32
2023-03-23T19:42:40.456Z,10.17
2023-03-23T19:45:43.142Z,9.86
2023-03-23T19:48:46.753Z,9.74
2023-03-23T19:51:49.129Z,9.32
2023-03-23T19:54:51.624Z,9.25
2023-03-23T19:57:54.144Z,9.25
2023-03-23T20:00:57.047Z,9.09
2023-03-23T20:04:01.870Z,9.18
2023-03-23T20:07:07.448Z,9.07
2023-03-23T20:10:10.418Z,9.12
2023-03-23T20:13:12.977Z,9.16
2023-03-23T20:16:16.691Z,9.14
2023-03-23T20:19:19.616Z,9.21
2023-03-23T20:22:22.037Z,8.92
2023-03-23T20:25:24.556Z,8.99
2023-03-23T20:28:28.453Z,9.22
2023-03-23T20:31:36.498Z,9.08
2023-03-23T20:34:39.123Z,8.92
2023-03-23T20:37:41.498Z,8.88
2023-03-23T20:40:45.412Z,8.85
2023-03-23T20:43:47.787Z,8.92
2023-03-23T20:46:51.888Z,8.81
2023-03-23T20:49:55.738Z,8.99
2023-03-23T20:52:58.259Z,9.01
2023-03-23T20:56:03.418Z,8.88
2023-03-23T20:59:05.924Z,9.24
2023-03-23T21:02:11.185Z,9.03
2023-03-23T21:05:13.522Z,9.01
2023-03-23T21:08:18.278Z,8.83
2023-03-23T21:11:23.331Z,9.13
2023-03-23T21:14:27.101Z,8.86
2023-03-23T21:17:29.522Z,8.99
2023-03-23T21:20:33.158Z,8.98
2023-03-23T21:23:35.478Z,8.73
2023-03-23T21:26:38.521Z,8.76
2023-03-23T21:29:40.784Z,9.08
2023-03-23T21:32:43.113Z,8.98
2023-03-23T21:35:45.763Z,9.05
2023-03-23T21:38:50.169Z,9.12
2023-03-23T21:41:52.407Z,9.07
2023-03-23T21:44:56.717Z,9.01
2023-03-23T21:48:00.022Z,9.02
2023-03-23T21:51:09.546Z,8.83
2023-03-23T21:54:12.653Z,8.90
2023-03-23T21:57:15.422Z,8.87
2023-03-23T22:00:19.040Z,8.79
2023-03-23T22:03:25.322Z,8.49
2023-03-23T22:06:28.643Z,8.75
2023-03-23T22:09:31.080Z,8.59
2023-03-23T22:12:33.510Z,8.58
2023-03-23T22:15:35.978Z,8.29
2023-03-23T22:18:39.364Z,8.75
2023-03-23T22:21:42.180Z,8.85
2023-03-23T22:24:44.566Z,8.98
2023-03-23T22:27:47.200Z,8.76
2023-03-23T22:30:49.547Z,8.85
2023-03-23T22:33:56.382Z,8.54
2023-03-23T22:36:58.899Z,8.59
2023-03-23T22:40:01.191Z,8.90
2023-03-23T22:43:03.865Z,8.74
2023-03-23T22:46:06.873Z,8.70
2023-03-23T22:49:09.432Z,8.49
2023-03-23T22:52:12.063Z,8.55
2023-03-23T22:55:14.373Z,8.54
2023-03-23T22:58:17.825Z,8.66
2023-03-23T23:01:21.982Z,8.57
2023-03-23T23:04:24.426Z,8.81
2023-03-23T23:07:26.789Z,9.05
2023-03-23T23:10:29.269Z,9.06
2023-03-23T23:13:33.230Z,9.13
2023-03-23T23:16:35.659Z,8.99
2023-03-23T23:19:38.378Z,8.96
2023-03-23T23:22:41.827Z,8.86
2023-03-23T23:25:45.568Z,8.79
2023-03-23T23:28:48.696Z,8.97
2023-03-23T23:31:51.106Z,8.78
2023-03-23T23:34:53.519Z,8.63
2023-03-23T23:37:55.876Z,8.51
2023-03-23T23:40:58.580Z,8.30
2023-03-23T23:44:01.738Z,8.45
2023-03-23T23:47:04.250Z,8.58
2023-03-23T23:50:08.951Z,8.60
2023-03-23T23:53:11.307Z,8.61
2023-03-23T23:56:14.554Z,8.53
2023-03-23T23:59:17.641Z,8.30
